METAR Data
IDs: Format: Raw Decoded Include TAF

Data at: 0254 UTC 24 Jun 2021

METAR for:KMNN (Marion Muni, OH, US)
Text:KMNN 240153Z AUTO 19006KT 10SM CLR 19/11 A3018 RMK AO2 SLP217 T01940106
Temperature: 19.4°C ( 67°F)
Dewpoint: 10.6°C ( 51°F) [RH = 57%]
Pressure (altimeter):30.18 inches Hg (1022.1 mb) [Sea level pressure: 1021.7 mb]
Winds:from the S (190 degrees) at 7 MPH (6 knots; 3.1 m/s)
Visibility:10 or more sm (16+ km)
Ceiling:at least 12,000 feet AGL
Clouds:sky clear below 12,000 feet AGL
QC Flag:automated observation with no human augmentation